Dr.kaiyo — JD2325 — position and weather

sailwx.info

Track history (hours):
 
Tides and Currents Weather Stations Pressure Air Temp Water Temp Dewpoint Dewpoint Depression Visibility Wind Speed Wind Dir Waves Ship Positions

Dr.kaiyo

Last reported at 2014-Aug-29 05:33 UTC. Time now 2014-Aug-30 20:31 UTC.
Position N 34°41' E 135°12'.

Length 31 m.

Type: Other ship. MMSI: 431301823.

Date/timePositionNaut miles runAvg speedWind from/ knotsBaromVisibWave heightAir tempDewpointWater temp
2014-Aug-29 05:33N 34°41' E 135°12'7 7.4
2014-Aug-29 04:33N 34°36' E 135°07'6 5.9
2014-Aug-29 03:33N 34°33' E 135°00'4 4.1
2014-Aug-29 02:33N 34°29' E 134°60'6 6.2
2014-Aug-29 01:33N 34°31' E 135°07'1110.5
2014-Aug-29 00:33N 34°41' E 135°13'0 0.0
2014-Aug-28 23:33N 34°41' E 135°13'1 0.7
2014-Aug-28 22:33N 34°41' E 135°12'0 0.0
2014-Aug-28 07:32N 34°41' E 135°12'0 0.0
2014-Aug-28 06:33N 34°41' E 135°12'0 0.2
2014-Aug-28 05:33N 34°42' E 135°12'1 0.8
2014-Aug-28 04:33N 34°41' E 135°13'1 0.8
2014-Aug-28 03:33N 34°42' E 135°12'0 0.2
2014-Aug-28 02:32N 34°41' E 135°12'0 0.0
2014-Aug-28 01:33N 34°41' E 135°12'0 0.0
2014-Aug-27 04:16N 34°41' E 135°12'0 0.0
2014-Aug-27 03:33N 34°41' E 135°12'4 4.5
2014-Aug-27 02:33N 34°38' E 135°10'2 2.1
2014-Aug-27 01:33N 34°36' E 135°08'6 6.1
2014-Aug-27 00:33N 34°41' E 135°13'0 0.0
2014-Aug-26 23:33N 34°41' E 135°13'1 0.7
2014-Aug-26 22:33N 34°41' E 135°12'0 0.0
2014-Aug-26 06:19N 34°41' E 135°12'0 0.0
2014-Aug-26 05:33N 34°41' E 135°12'5 5.3
2014-Aug-26 04:33N 34°41' E 135°19'1 1.4
2014-Aug-26 03:33N 34°40' E 135°20'1 0.5
2014-Aug-26 02:33N 34°40' E 135°20'4 3.7
2014-Aug-26 01:33N 34°41' E 135°16'3 2.8
2014-Aug-26 00:33N 34°41' E 135°13'0 0.0
2014-Aug-25 23:33N 34°41' E 135°13'1 0.7
2014-Aug-25 22:33N 34°41' E 135°12'0 0.0
2014-Aug-25 06:33N 34°41' E 135°12'0 0.0
2014-Aug-25 05:34N 34°41' E 135°12'4 4.0
2014-Aug-25 04:33N 34°38' E 135°14'2 2.3
2014-Aug-25 03:34N 34°39' E 135°12'6 5.5
2014-Aug-25 02:29N 34°41' E 135°19'1 0.7
2014-Aug-25 01:33N 34°40' E 135°18'1 1.0
2014-Aug-25 00:33N 34°40' E 135°17'4 4.4
2014-Aug-24 23:33N 34°42' E 135°13'  
2014-Aug-22 06:08N 34°41' E 135°12'3 5.9
2014-Aug-22 05:33N 34°39' E 135°16'2 2.2
2014-Aug-22 04:33N 34°37' E 135°17'4 4.3
2014-Aug-22 03:33N 34°39' E 135°12'3 3.0
2014-Aug-22 02:33N 34°36' E 135°10'8 7.6
2014-Aug-22 01:33N 34°30' E 135°05'1110.7
2014-Aug-22 00:33N 34°31' E 135°18'1211.7
2014-Aug-21 23:33N 34°42' E 135°13'0 0.0
2014-Aug-21 06:25N 34°41' E 135°12'2 2.2
2014-Aug-21 05:33N 34°41' E 135°14'6 6.5
2014-Aug-21 04:34N 34°37' E 135°08'2 2.4
2014-Aug-21 03:33N 34°38' E 135°11'6 6.3
2014-Aug-21 02:33N 34°34' E 135°05'7 6.7
2014-Aug-21 01:32N 34°27' E 135°04'1010.6
2014-Aug-21 00:33N 34°32' E 135°15'10 9.7
2014-Aug-20 23:33N 34°42' E 135°12'0 0.0
2014-Aug-20 06:22N 34°41' E 135°12'4 5.5
2014-Aug-20 05:33N 34°38' E 135°10'9 9.4
2014-Aug-20 04:34N 34°29' E 135°05'5 5.2
2014-Aug-20 03:33N 34°32' E 135°00'3 2.8
2014-Aug-20 02:33N 34°30' E 135°01'9 9.4
2014-Aug-20 01:33N 34°36' E 135°09'6 5.7
2014-Aug-20 00:33N 34°41' E 135°13'0 0.0
2014-Aug-19 23:33N 34°41' E 135°13'1 0.7
2014-Aug-19 22:33N 34°41' E 135°12'0 0.0
2014-Aug-19 06:18N 34°41' E 135°12'0 0.0
2014-Aug-19 05:33N 34°41' E 135°12'  
Track history (hours):
 
Tides and Currents Weather Stations Pressure Air Temp Water Temp Dewpoint Dewpoint Depression Visibility Wind Speed Wind Dir Waves Ship Positions

Dr.kaiyo

Last reported at 2014-Aug-29 05:33 UTC. Time now 2014-Aug-30 20:31 UTC.
Position N 34°41' E 135°12'.

Length 31 m.

Type: Other ship. MMSI: 431301823.

Date/timePositionNaut miles runAvg speedWind from/ knotsBaromVisibWave heightAir tempDewpointWater temp
2014-Aug-29 05:33N 34°41' E 135°12'7 7.4
2014-Aug-29 04:33N 34°36' E 135°07'6 5.9
2014-Aug-29 03:33N 34°33' E 135°00'4 4.1
2014-Aug-29 02:33N 34°29' E 134°60'6 6.2
2014-Aug-29 01:33N 34°31' E 135°07'1110.5
2014-Aug-29 00:33N 34°41' E 135°13'0 0.0
2014-Aug-28 23:33N 34°41' E 135°13'1 0.7
2014-Aug-28 22:33N 34°41' E 135°12'0 0.0
2014-Aug-28 07:32N 34°41' E 135°12'0 0.0
2014-Aug-28 06:33N 34°41' E 135°12'0 0.2
2014-Aug-28 05:33N 34°42' E 135°12'1 0.8
2014-Aug-28 04:33N 34°41' E 135°13'1 0.8
2014-Aug-28 03:33N 34°42' E 135°12'0 0.2
2014-Aug-28 02:32N 34°41' E 135°12'0 0.0
2014-Aug-28 01:33N 34°41' E 135°12'0 0.0
2014-Aug-27 04:16N 34°41' E 135°12'0 0.0
2014-Aug-27 03:33N 34°41' E 135°12'4 4.5
2014-Aug-27 02:33N 34°38' E 135°10'2 2.1
2014-Aug-27 01:33N 34°36' E 135°08'6 6.1
2014-Aug-27 00:33N 34°41' E 135°13'0 0.0
2014-Aug-26 23:33N 34°41' E 135°13'1 0.7
2014-Aug-26 22:33N 34°41' E 135°12'0 0.0
2014-Aug-26 06:19N 34°41' E 135°12'0 0.0
2014-Aug-26 05:33N 34°41' E 135°12'5 5.3
2014-Aug-26 04:33N 34°41' E 135°19'1 1.4
2014-Aug-26 03:33N 34°40' E 135°20'1 0.5
2014-Aug-26 02:33N 34°40' E 135°20'4 3.7
2014-Aug-26 01:33N 34°41' E 135°16'3 2.8
2014-Aug-26 00:33N 34°41' E 135°13'0 0.0
2014-Aug-25 23:33N 34°41' E 135°13'1 0.7
2014-Aug-25 22:33N 34°41' E 135°12'0 0.0
2014-Aug-25 06:33N 34°41' E 135°12'0 0.0
2014-Aug-25 05:34N 34°41' E 135°12'4 4.0
2014-Aug-25 04:33N 34°38' E 135°14'2 2.3
2014-Aug-25 03:34N 34°39' E 135°12'6 5.5
2014-Aug-25 02:29N 34°41' E 135°19'1 0.7
2014-Aug-25 01:33N 34°40' E 135°18'1 1.0
2014-Aug-25 00:33N 34°40' E 135°17'4 4.4
2014-Aug-24 23:33N 34°42' E 135°13'  
2014-Aug-22 06:08N 34°41' E 135°12'3 5.9
2014-Aug-22 05:33N 34°39' E 135°16'2 2.2
2014-Aug-22 04:33N 34°37' E 135°17'4 4.3
2014-Aug-22 03:33N 34°39' E 135°12'3 3.0
2014-Aug-22 02:33N 34°36' E 135°10'8 7.6
2014-Aug-22 01:33N 34°30' E 135°05'1110.7
2014-Aug-22 00:33N 34°31' E 135°18'1211.7
2014-Aug-21 23:33N 34°42' E 135°13'0 0.0
2014-Aug-21 06:25N 34°41' E 135°12'2 2.2
2014-Aug-21 05:33N 34°41' E 135°14'6 6.5
2014-Aug-21 04:34N 34°37' E 135°08'2 2.4
2014-Aug-21 03:33N 34°38' E 135°11'6 6.3
2014-Aug-21 02:33N 34°34' E 135°05'7 6.7
2014-Aug-21 01:32N 34°27' E 135°04'1010.6
2014-Aug-21 00:33N 34°32' E 135°15'10 9.7
2014-Aug-20 23:33N 34°42' E 135°12'0 0.0
2014-Aug-20 06:22N 34°41' E 135°12'4 5.5
2014-Aug-20 05:33N 34°38' E 135°10'9 9.4
2014-Aug-20 04:34N 34°29' E 135°05'5 5.2
2014-Aug-20 03:33N 34°32' E 135°00'3 2.8
2014-Aug-20 02:33N 34°30' E 135°01'9 9.4
2014-Aug-20 01:33N 34°36' E 135°09'6 5.7
2014-Aug-20 00:33N 34°41' E 135°13'0 0.0
2014-Aug-19 23:33N 34°41' E 135°13'1 0.7
2014-Aug-19 22:33N 34°41' E 135°12'0 0.0
2014-Aug-19 06:18N 34°41' E 135°12'0 0.0
2014-Aug-19 05:33N 34°41' E 135°12'  

Dump ship's entire track history